Kuujjuarapik, Canada
Current Conditions -  °F | °C
As of 4:08 PM on Friday 31 Oct 2014 (Local Time) from CYGW Reporting Station
Light Snow Light Snow  
Wind Chill: 19°   Ceiling: 3900
Heat Index: 30°   Visibility: 5mi
Dew Point: 25°   Wind: 16mph
Humidity: 80%   Direction: 300°WNW
Pressure: 30.14"   Gusts: 23mph
Location:  55.26°N, 77.78°W
Report Text: CYGW 312008Z AUTO 30014G20KT 5SM -SN SCT028 BKN039 BKN048 OVC055 M01/M04 A3014 RMK SLP206
Loading
Personal Weather Stations






























Interactive Weather Map
Tropical Storm Tracking
New forecast layout! Learn more

10-Day Weather Forecast

Advertisements
Track Severe Weather on mobile